Archival Weather

Tokyo Intl

Tokyo Intl, Japan (RJTT)

Report from: Friday, June 24, 2022 10:00 PM JST
Current time: Tuesday, August 16, 2022 11:12 AM JST

Current weather
Weather history
Weather forecast

Temperature27.0°C (80.6°F)
Heat index29.3°C (84.8°F)
Dew point22.0°C (71.6°F)
Winds 19 kts (9.8 m/s, 21.9 mph) South-Southwest (210°)
Visibility6.2 mi. (10 km)
Clouds Few clouds 1,000 ft. (305 m)
Altimeter29.62 in.Hg (1003 mB)
Relative humidity74 %
Density altitude2,086 ft. (636 m)
Remarks No significant changes expected in the next two hours
Flight conditions Visual Meteorological Conditions
Raw dataRJTT 241300Z 21019KT 9999 FEW010 27/22 Q1003 NOSIG RMK 1CU010 A2964
An error has occurred. This application may no longer respond until reloaded. Reload 🗙